Time;durP1;ratioP1;P1;durP2;ratioP2;P2;SDS_P1;SDS_P2;PMS_P1;PMS_P2;Temp;Humidity;BMP_temperature;BMP_pressure;BME280_temperature;BME280_humidity;BME280_pressure;Samples;Min_cycle;Max_cycle;Signal;HPM_P1;HPM_P2
2024/03/23 00:00:53;;;;;;;;;;;8.50;99.90;;;;;;8344567;28;19924;-74
2024/03/23 00:04:55;;;;;;;;;;;8.50;99.90;;;;;;8359008;28;19950;-74
2024/03/23 00:08:56;;;;;;;;;;;8.50;99.90;;;;;;8361898;28;19978;-74
2024/03/23 00:13:01;;;;;;;;;;;8.40;99.90;;;;;;8356387;28;20376;-74
2024/03/23 00:17:02;;;;;;;;;;;8.40;99.90;;;;;;8361261;28;19921;-73
2024/03/23 00:21:04;;;;;;;;;;;8.40;99.90;;;;;;8369542;28;19927;-74
2024/03/23 00:25:05;;;;;;;;;;;8.30;99.90;;;;;;8363662;28;20275;-74
2024/03/23 00:29:07;;;;;;;;;;;8.30;99.90;;;;;;8359814;28;19928;-74
2024/03/23 00:33:08;;;;;;;;;;;8.30;99.90;;;;;;8356992;28;20384;-74
2024/03/23 00:37:10;;;;;;;;;;;8.30;99.90;;;;;;8370383;28;19924;-74
2024/03/23 00:51:18;;;;;;;;;;;8.30;99.90;;;;;;8363775;28;19982;-73
2024/03/23 00:55:19;;;;;;;;;;;8.30;99.90;;;;;;8379110;28;20010;-74
2024/03/23 00:59:22;;;;;;;;;;;8.30;99.90;;;;;;8370869;28;19929;-74
2024/03/23 01:03:23;;;;;;;;;;;8.30;99.90;;;;;;8378675;28;19932;-74
2024/03/23 01:07:23;;;;;;;;;;;8.40;99.90;;;;;;8377857;28;20023;-73
2024/03/23 01:11:24;;;;;;;;;;;8.40;99.90;;;;;;8376024;28;20007;-74
2024/03/23 01:15:25;;;;;;;;;;;8.40;99.90;;;;;;8373500;28;19951;-74
2024/03/23 01:19:26;;;;;;;;;;;8.40;99.90;;;;;;8374487;28;19931;-73
2024/03/23 01:23:27;;;;;;;;;;;8.40;99.90;;;;;;8377489;28;19924;-74
2024/03/23 01:27:27;;;;;;;;;;;8.40;99.90;;;;;;8373495;28;19968;-74
2024/03/23 01:31:28;;;;;;;;;;;8.40;99.90;;;;;;8372954;28;19935;-74
2024/03/23 01:35:29;;;;;;;;;;;8.40;99.90;;;;;;8376574;28;20089;-74
2024/03/23 01:39:30;;;;;;;;;;;8.30;99.90;;;;;;8366483;28;20053;-73
2024/03/23 01:43:31;;;;;;;;;;;8.30;99.90;;;;;;8361267;28;20306;-74
2024/03/23 01:47:31;;;;;;;;;;;8.30;99.90;;;;;;8381628;28;20652;-73
2024/03/23 01:51:33;;;;;;;;;;;8.20;99.90;;;;;;8356197;28;19925;-74
2024/03/23 01:55:34;;;;;;;;;;;8.10;99.90;;;;;;8376977;28;19928;-74
2024/03/23 01:59:34;;;;;;;;;;;8.10;99.90;;;;;;8370676;28;19960;-74
2024/03/23 02:03:35;;;;;;;;;;;8.00;99.90;;;;;;8383288;28;19952;-74
2024/03/23 02:07:36;;;;;;;;;;;7.90;99.90;;;;;;8370341;28;20299;-74
2024/03/23 02:11:37;;;;;;;;;;;7.80;99.90;;;;;;8370385;28;20290;-75
2024/03/23 02:15:39;;;;;;;;;;;7.70;99.90;;;;;;8377490;28;19923;-73
2024/03/23 02:19:40;;;;;;;;;;;7.60;99.90;;;;;;8365519;28;19927;-73
2024/03/23 02:23:41;;;;;;;;;;;7.50;99.90;;;;;;8365740;28;19920;-74
2024/03/23 02:27:41;;;;;;;;;;;7.40;99.90;;;;;;8377241;28;20298;-74
2024/03/23 02:31:42;;;;;;;;;;;7.30;99.90;;;;;;8378851;28;19924;-73
2024/03/23 02:35:43;;;;;;;;;;;7.20;99.90;;;;;;8371127;28;19927;-74
2024/03/23 02:39:44;;;;;;;;;;;7.10;99.90;;;;;;8372412;28;19928;-74
2024/03/23 02:43:45;;;;;;;;;;;7.10;99.90;;;;;;8365746;28;19920;-74
2024/03/23 02:47:46;;;;;;;;;;;7.10;99.90;;;;;;8361363;28;20072;-74
2024/03/23 02:51:48;;;;;;;;;;;7.00;99.90;;;;;;8364612;28;19989;-73
2024/03/23 02:55:49;;;;;;;;;;;6.90;99.90;;;;;;8372658;28;20414;-74
2024/03/23 02:59:50;;;;;;;;;;;6.90;99.90;;;;;;8367863;28;22366;-73
2024/03/23 03:03:51;;;;;;;;;;;6.80;99.90;;;;;;8371220;28;20007;-74
2024/03/23 03:07:51;;;;;;;;;;;6.70;99.90;;;;;;8374575;28;19920;-73
2024/03/23 03:11:52;;;;;;;;;;;6.70;99.90;;;;;;8372378;28;19928;-73
2024/03/23 03:15:53;;;;;;;;;;;6.60;99.90;;;;;;8371820;28;20134;-74
2024/03/23 03:19:55;;;;;;;;;;;6.60;99.90;;;;;;8370343;28;19995;-74
2024/03/23 03:23:56;;;;;;;;;;;6.50;99.90;;;;;;8369036;28;19934;-73
2024/03/23 03:27:57;;;;;;;;;;;6.50;99.90;;;;;;8370750;28;20035;-74
2024/03/23 03:31:58;;;;;;;;;;;6.40;99.90;;;;;;8370639;28;19995;-74
2024/03/23 03:35:59;;;;;;;;;;;6.40;99.90;;;;;;8357562;28;19928;-74
2024/03/23 03:39:59;;;;;;;;;;;6.40;99.90;;;;;;8378684;28;19970;-74
2024/03/23 03:44:01;;;;;;;;;;;6.30;99.90;;;;;;8404069;28;19921;-74
2024/03/23 03:48:03;;;;;;;;;;;6.30;99.90;;;;;;8372987;28;20188;-73
2024/03/23 03:52:03;;;;;;;;;;;6.20;99.90;;;;;;8373016;28;20428;-73
2024/03/23 03:56:04;;;;;;;;;;;6.20;99.90;;;;;;8370511;28;19921;-74
2024/03/23 04:00:06;;;;;;;;;;;6.10;99.90;;;;;;8372375;28;19920;-73
2024/03/23 04:04:06;;;;;;;;;;;6.10;99.90;;;;;;8374139;28;19920;-73
2024/03/23 04:08:07;;;;;;;;;;;6.00;99.90;;;;;;8370206;28;19920;-73
2024/03/23 04:12:09;;;;;;;;;;;5.90;99.90;;;;;;8380241;28;20031;-73
2024/03/23 04:16:10;;;;;;;;;;;5.90;99.90;;;;;;8402229;28;19924;-74
2024/03/23 04:20:11;;;;;;;;;;;5.80;99.90;;;;;;8372313;28;19936;-73
2024/03/23 04:24:12;;;;;;;;;;;5.70;99.90;;;;;;8374544;28;20337;-73
2024/03/23 04:28:12;;;;;;;;;;;5.60;99.90;;;;;;8369683;28;19920;-74
2024/03/23 04:32:14;;;;;;;5.40;1.92;;;5.60;99.90;;;;;;8408362;28;19921;-74
2024/03/23 04:36:14;;;;;;;6.15;2.30;;;5.50;99.90;;;;;;8373964;28;20076;-73
2024/03/23 04:40:15;;;;;;;4.82;1.90;;;5.40;99.90;;;;;;8362924;28;20156;-74
2024/03/23 04:44:16;;;;;;;6.85;2.00;;;5.30;99.90;;;;;;8383942;28;20041;-74
2024/03/23 04:48:20;;;;;;;6.07;1.80;;;5.30;99.90;;;;;;8360729;28;20353;-74
2024/03/23 04:52:21;;;;;;;6.07;2.00;;;5.30;99.90;;;;;;8366537;28;20062;-74
2024/03/23 04:56:22;;;;;;;9.02;2.05;;;5.30;99.90;;;;;;8380403;28;21487;-74
2024/03/23 05:00:23;;;;;;;5.18;2.15;;;5.30;99.90;;;;;;8375125;28;20052;-74
2024/03/23 05:04:24;;;;;;;4.95;1.63;;;5.30;99.90;;;;;;8393814;28;20074;-74
2024/03/23 05:08:27;;;;;;;8.93;1.95;;;5.30;99.90;;;;;;8380178;28;21111;-73
2024/03/23 05:12:27;;;;;;;7.35;2.03;;;5.20;99.90;;;;;;8391337;28;20071;-73
2024/03/23 05:16:28;;;;;;;5.47;2.03;;;5.30;99.90;;;;;;8390973;28;20052;-73
2024/03/23 05:20:29;;;;;;;7.43;1.90;;;5.20;99.90;;;;;;8414732;28;20858;-73
2024/03/23 05:24:30;;;;;;;6.55;1.92;;;5.20;99.90;;;;;;8406708;28;20051;-74
2024/03/23 05:28:31;;;;;;;6.18;1.60;;;5.20;99.90;;;;;;8403104;28;20048;-74
2024/03/23 05:32:32;;;;;;;4.70;1.55;;;5.20;99.90;;;;;;8387890;28;20063;-74
2024/03/23 05:36:33;;;;;;;5.00;1.55;;;5.20;99.90;;;;;;8401093;28;20129;-74
2024/03/23 05:40:37;;;;;;;7.45;1.75;;;5.20;99.90;;;;;;8404327;28;20048;-73
2024/03/23 05:44:38;;;;;;;4.80;1.50;;;5.20;99.90;;;;;;8400949;28;20498;-74
2024/03/23 05:48:39;;;;;;;8.50;1.80;;;5.20;99.90;;;;;;8409507;28;20544;-74
2024/03/23 05:52:41;;;;;;;4.47;1.60;;;5.20;99.90;;;;;;8407244;28;20141;-74
2024/03/23 05:56:42;;;;;;;6.00;1.80;;;5.30;99.90;;;;;;8401202;28;20115;-73
2024/03/23 06:00:43;;;;;;;4.28;1.23;;;5.40;99.90;;;;;;8390663;28;20087;-74
2024/03/23 06:04:45;;;;;;;6.55;1.52;;;5.40;99.90;;;;;;8403189;28;20052;-74
2024/03/23 06:08:46;;;;;;;7.63;1.70;;;5.40;99.90;;;;;;8388975;28;20047;-73
2024/03/23 06:12:48;;;;;;;4.45;1.50;;;5.50;99.90;;;;;;8393364;28;20043;-74
2024/03/23 06:16:50;;;;;;;5.70;1.55;;;5.50;99.90;;;;;;8402785;28;20055;-74
2024/03/23 06:20:50;;;;;;;7.20;1.73;;;5.60;99.90;;;;;;8389902;28;20126;-73
2024/03/23 06:24:51;;;;;;;3.45;1.45;;;5.70;99.90;;;;;;8411135;28;20131;-74
2024/03/23 06:28:52;;;;;;;5.63;1.20;;;5.70;99.90;;;;;;8403941;28;20388;-74
2024/03/23 06:32:54;;;;;;;3.95;1.48;;;5.70;99.90;;;;;;8390481;28;20177;-73
2024/03/23 06:36:55;;;;;;;7.90;1.95;;;5.90;99.90;;;;;;8406304;28;20079;-74
2024/03/23 06:40:56;;;;;;;6.22;1.70;;;6.00;99.90;;;;;;8400807;28;20060;-74
2024/03/23 06:44:56;;;;;;;6.43;1.60;;;6.20;99.90;;;;;;8405039;28;20087;-73
2024/03/23 06:48:57;;;;;;;4.85;1.63;;;6.30;99.90;;;;;;8392753;28;20040;-74
2024/03/23 06:52:58;;;;;;;7.13;1.77;;;6.40;99.90;;;;;;8403790;28;20052;-74
2024/03/23 06:56:59;;;;;;;7.30;1.88;;;6.60;99.90;;;;;;8412354;28;20452;-74
2024/03/23 07:01:00;;;;;;;6.28;1.80;;;6.60;99.90;;;;;;8400444;28;20418;-74
2024/03/23 07:05:01;;;;;;;7.50;2.00;;;6.70;99.90;;;;;;8386187;28;20044;-74
2024/03/23 07:09:02;;;;;;;5.70;1.48;;;6.80;99.90;;;;;;8389325;28;20048;-74
2024/03/23 07:13:03;;;;;;;8.32;1.80;;;6.90;99.90;;;;;;8406170;28;20054;-74
2024/03/23 07:17:04;;;;;;;9.65;2.75;;;7.00;99.90;;;;;;8407297;28;20062;-74
2024/03/23 07:21:06;;;;;;;9.25;2.40;;;7.10;99.90;;;;;;8405767;28;20131;-74
2024/03/23 07:25:07;;;;;;;6.72;2.10;;;7.10;99.90;;;;;;8392124;28;20136;-74
2024/03/23 07:29:09;;;;;;;7.72;2.83;;;7.20;99.90;;;;;;8402407;28;20399;-74
2024/03/23 07:33:10;;;;;;;12.82;3.03;;;7.20;99.90;;;;;;8405968;28;20123;-74
2024/03/23 07:37:11;;;;;;;6.55;2.50;;;7.30;99.90;;;;;;8402004;28;20497;-74
2024/03/23 07:41:14;;;;;;;;;;;7.50;99.90;;;;;;8382055;28;20123;-74
2024/03/23 07:45:15;;;;;;;;;;;7.60;99.90;;;;;;8384399;28;20014;-74
2024/03/23 07:49:16;;;;;;;;;;;7.70;99.90;;;;;;8403940;28;19963;-75
2024/03/23 07:53:17;;;;;;;;;;;7.80;99.90;;;;;;8405391;28;19966;-74
2024/03/23 07:57:18;;;;;;;;;;;8.00;99.90;;;;;;8409379;28;19973;-74
2024/03/23 08:01:19;;;;;;;;;;;8.00;99.90;;;;;;8388960;28;19920;-74
2024/03/23 08:05:19;;;;;;;;;;;8.10;99.90;;;;;;8405376;28;20422;-74
2024/03/23 08:09:20;;;;;;;;;;;8.10;99.90;;;;;;8414729;28;20395;-73
2024/03/23 08:13:22;;;;;;;;;;;8.10;99.90;;;;;;8411224;28;19988;-74
2024/03/23 08:17:22;;;;;;;;;;;8.00;99.90;;;;;;8405158;28;20000;-74
2024/03/23 08:21:25;;;;;;;;;;;8.00;99.90;;;;;;8413830;28;20327;-74
2024/03/23 08:25:26;;;;;;;;;;;7.90;99.90;;;;;;8399641;28;20022;-74
2024/03/23 08:29:27;;;;;;;;;;;7.70;99.90;;;;;;8411910;28;20442;-74
2024/03/23 08:33:28;;;;;;;;;;;7.60;99.90;;;;;;8409460;28;20564;-74
2024/03/23 08:37:29;;;;;;;;;;;7.70;99.90;;;;;;8391938;28;19924;-74
2024/03/23 08:41:29;;;;;;;;;;;7.70;99.90;;;;;;8399659;28;19947;-73
2024/03/23 08:45:31;;;;;;;;;;;7.80;99.90;;;;;;8392193;28;20004;-74
2024/03/23 08:49:31;;;;;;;;;;;7.80;99.90;;;;;;8405747;28;19920;-73
2024/03/23 08:53:32;;;;;;;;;;;7.90;99.90;;;;;;8394239;28;20020;-74
2024/03/23 08:57:33;;;;;;;;;;;8.10;99.90;;;;;;8384073;28;20323;-74
2024/03/23 09:01:34;;;;;;;;;;;8.40;99.90;;;;;;8403089;28;20409;-74
2024/03/23 09:05:38;;;;;;;;;;;8.80;99.90;;;;;;8411802;28;19920;-73
2024/03/23 09:09:40;;;;;;;;;;;9.10;99.90;;;;;;8405340;28;19920;-73
2024/03/23 09:13:41;;;;;;;;;;;9.30;99.90;;;;;;8408933;28;20264;-74
2024/03/23 09:17:42;;;;;;;;;;;9.50;99.90;;;;;;8410227;28;19920;-73
2024/03/23 09:21:43;;;;;;;;;;;9.50;99.90;;;;;;8412085;28;19959;-73
2024/03/23 09:25:44;;;;;;;;;;;9.30;99.90;;;;;;8411680;28;19994;-74
2024/03/23 09:29:45;;;;;;;;;;;8.90;99.90;;;;;;8408575;28;20370;-74
2024/03/23 09:33:46;;;;;;;;;;;8.40;99.90;;;;;;8406567;28;20049;-73
2024/03/23 09:37:47;;;;;;;;;;;8.10;99.90;;;;;;8410332;28;19964;-74
2024/03/23 09:41:47;;;;;;;;;;;8.20;99.90;;;;;;8379774;28;19920;-74
2024/03/23 09:45:48;;;;;;;;;;;8.50;99.90;;;;;;8408643;28;19927;-74
2024/03/23 09:49:49;;;;;;;;;;;8.70;99.90;;;;;;8401536;28;20368;-74
2024/03/23 09:53:52;;;;;;;;;;;8.70;99.90;;;;;;8405478;28;20339;-73
2024/03/23 09:57:53;;;;;;;;;;;8.60;99.90;;;;;;8407154;28;20007;-74
2024/03/23 10:01:53;;;;;;;;;;;8.60;99.90;;;;;;8395799;28;19927;-73
2024/03/23 10:06:02;;;;;;;;;;;8.70;99.90;;;;;;8394431;28;19963;-74
2024/03/23 10:10:10;;;;;;;;;;;8.90;99.90;;;;;;8397502;28;19920;-74
2024/03/23 10:14:11;;;;;;;;;;;9.20;99.90;;;;;;8406857;28;19999;-74
2024/03/23 10:18:19;;;;;;;;;;;9.20;99.90;;;;;;8408679;28;19920;-74
2024/03/23 10:22:25;;;;;;;;;;;9.00;99.90;;;;;;8404231;28;19920;-74
2024/03/23 10:26:27;;;;;;;;;;;9.10;99.90;;;;;;8393181;28;20006;-74
2024/03/23 10:30:28;;;;;;;;;;;9.10;99.90;;;;;;8400295;28;19926;-74
2024/03/23 10:34:29;;;;;;;;;;;9.40;99.90;;;;;;8406044;28;19924;-73
2024/03/23 10:38:29;;;;;;;;;;;9.90;99.90;;;;;;8405742;28;19963;-74
2024/03/23 10:42:30;;;;;;;;;;;10.20;99.90;;;;;;8393807;28;19928;-73
2024/03/23 10:46:31;;;;;;;;;;;10.20;99.90;;;;;;8406529;28;20438;-74
2024/03/23 10:50:32;;;;;;;;;;;9.90;99.90;;;;;;8402110;28;19919;-74
2024/03/23 10:54:33;;;;;;;;;;;9.10;99.90;;;;;;8409138;28;20056;-73
2024/03/23 10:58:40;;;;;;;;;;;8.80;99.90;;;;;;8405873;28;19924;-73
2024/03/23 11:02:40;;;;;;;;;;;8.90;99.90;;;;;;8400351;28;19924;-74
2024/03/23 11:11:45;;;;;;;;;;;9.00;99.90;;;;;;8419688;28;19948;-73
2024/03/23 11:15:45;;;;;;;;;;;8.50;99.90;;;;;;8393348;28;19920;-73
2024/03/23 11:19:57;;;;;;;;;;;8.20;99.90;;;;;;8404174;28;19927;-74
2024/03/23 11:24:14;;;;;;;;;;;7.90;99.90;;;;;;8398841;28;19938;-73
2024/03/23 11:28:16;;;;;;;;;;;7.80;99.90;;;;;;8410859;28;20015;-73
2024/03/23 11:32:16;;;;;;;;;;;7.60;99.90;;;;;;8378494;28;19920;-74
2024/03/23 11:36:20;;;;;;;;;;;7.60;99.90;;;;;;8402348;28;19920;-73
2024/03/23 11:40:21;;;;;;;;;;;8.10;99.90;;;;;;8393773;28;19943;-73
2024/03/23 11:44:25;;;;;;;;;;;9.20;99.90;;;;;;8398195;28;20390;-73
2024/03/23 11:48:27;;;;;;;;;;;9.90;99.90;;;;;;8410293;28;19932;-73
2024/03/23 11:52:35;;;;;;;;;;;10.10;99.90;;;;;;8377653;28;19926;-73
2024/03/23 11:56:36;;;;;;;;;;;10.00;99.90;;;;;;8431423;28;19964;-74
2024/03/23 12:00:37;;;;;;;;;;;10.40;99.90;;;;;;8389303;28;20416;-74
2024/03/23 12:04:39;;;;;;;;;;;10.80;99.90;;;;;;8400994;28;20006;-73
2024/03/23 12:08:40;;;;;;;;;;;10.70;99.90;;;;;;8395820;28;19920;-73
2024/03/23 12:12:41;;;;;;;;;;;10.20;99.90;;;;;;8412984;28;20228;-74
2024/03/23 12:16:42;;;;;;;;;;;10.00;99.90;;;;;;8408893;28;19985;-73
2024/03/23 12:20:43;;;;;;;;;;;10.70;99.90;;;;;;8409332;28;20389;-74
2024/03/23 12:24:45;;;;;;;;;;;11.00;99.90;;;;;;8386895;28;20306;-73
2024/03/23 12:28:46;;;;;;;;;;;11.20;99.90;;;;;;8408664;28;20329;-74
2024/03/23 12:32:46;;;;;;;;;;;11.20;99.90;;;;;;8380481;28;20024;-74
2024/03/23 12:36:47;;;;;;;;;;;10.70;99.90;;;;;;8393585;28;19920;-73
2024/03/23 12:40:51;;;;;;;;;;;10.30;99.90;;;;;;8385348;28;20256;-74
2024/03/23 12:44:52;;;;;;;;;;;10.30;99.90;;;;;;8408651;28;20450;-74
2024/03/23 12:48:53;;;;;;;;;;;10.80;99.90;;;;;;8404677;28;19927;-74
2024/03/23 12:52:53;;;;;;;;;;;11.10;99.90;;;;;;8401645;28;19924;-74
2024/03/23 12:56:55;;;;;;;;;;;10.80;99.90;;;;;;8398297;28;19965;-73
2024/03/23 13:00:58;;;;;;;;;;;10.30;99.90;;;;;;8390325;28;19920;-73
2024/03/23 13:04:58;;;;;;;;;;;10.30;99.90;;;;;;8409899;28;20023;-73
2024/03/23 13:09:01;;;;;;;;;;;10.20;99.90;;;;;;8408938;28;19924;-73
2024/03/23 13:13:02;;;;;;;;;;;10.10;99.90;;;;;;8412611;28;20335;-73
2024/03/23 13:17:03;;;;;;;;;;;10.00;99.90;;;;;;8410685;28;19923;-74
2024/03/23 13:21:04;;;;;;;;;;;9.80;99.90;;;;;;8399731;28;19920;-74
2024/03/23 13:25:05;;;;;;;;;;;9.50;99.90;;;;;;8394241;28;19934;-74
2024/03/23 13:29:06;;;;;;;;;;;9.10;99.90;;;;;;8389356;28;19927;-74
2024/03/23 13:33:08;;;;;;;;;;;9.00;99.90;;;;;;8410976;28;19963;-74
2024/03/23 13:37:09;;;;;;;;;;;9.30;99.90;;;;;;8389628;28;19995;-73
2024/03/23 13:41:12;;;;;;;;;;;9.70;99.90;;;;;;8398312;28;19924;-74
2024/03/23 13:45:13;;;;;;;;;;;10.20;99.90;;;;;;8407862;28;20006;-74
2024/03/23 13:49:27;;;;;;;;;;;10.40;99.90;;;;;;8403723;28;19920;-74
2024/03/23 13:53:28;;;;;;;;;;;10.20;99.90;;;;;;8407964;28;19928;-74
2024/03/23 13:57:29;;;;;;;;;;;9.50;99.90;;;;;;8391374;28;20141;-74
2024/03/23 14:01:30;;;;;;;;;;;8.70;99.90;;;;;;8384406;28;19928;-73
2024/03/23 14:05:31;;;;;;;;;;;8.20;99.90;;;;;;8405027;28;20344;-74
2024/03/23 14:09:32;;;;;;;;;;;8.20;99.90;;;;;;8397037;28;19942;-74
2024/03/23 14:13:33;;;;;;;;;;;8.60;99.90;;;;;;8403070;28;20006;-74
2024/03/23 14:17:34;;;;;;;;;;;9.20;99.90;;;;;;8401084;28;20367;-74
2024/03/23 14:21:35;;;;;;;;;;;10.30;99.90;;;;;;8401844;28;20361;-74
2024/03/23 14:25:36;;;;;;;;;;;11.00;99.90;;;;;;8401308;28;20023;-74
2024/03/23 14:30:12;;;;;;;;;;;11.50;99.90;;;;;;8399268;28;19920;-73
2024/03/23 14:34:12;;;;;;;;;;;11.70;99.90;;;;;;8421213;28;20014;-74
2024/03/23 14:38:13;;;;;;;;;;;11.50;99.90;;;;;;8385918;28;19985;-74
2024/03/23 14:42:14;;;;;;;;;;;11.20;99.90;;;;;;8383275;28;19959;-74
2024/03/23 14:46:15;;;;;;;;;;;11.50;99.90;;;;;;8405163;28;19966;-74
2024/03/23 14:50:16;;;;;;;;;;;12.10;99.90;;;;;;8404684;28;19920;-73
2024/03/23 14:54:17;;;;;;;;;;;12.80;99.90;;;;;;8388126;28;19994;-74
2024/03/23 14:58:18;;;;;;;;;;;13.30;99.90;;;;;;8406722;28;19931;-73
2024/03/23 15:02:19;;;;;;;;;;;13.70;99.90;;;;;;8401973;28;19927;-74
2024/03/23 15:06:20;;;;;;;;;;;14.00;99.90;;;;;;8385199;28;19928;-74
2024/03/23 15:10:21;;;;;;;;;;;13.70;99.90;;;;;;8399473;28;19924;-73
2024/03/23 15:14:43;;;;;;;;;;;13.40;99.90;;;;;;8406162;28;20282;-74
2024/03/23 15:18:44;;;;;;;;;;;13.40;99.90;;;;;;8386782;28;19999;-73
2024/03/23 15:22:45;;;;;;;;;;;13.30;99.90;;;;;;8405394;28;19973;-74
2024/03/23 15:26:46;;;;;;;;;;;13.30;99.90;;;;;;8391375;28;19943;-74
2024/03/23 15:30:47;;;;;;;;;;;13.30;99.90;;;;;;8399504;28;20371;-74
2024/03/23 15:34:48;;;;;;;;;;;13.20;99.90;;;;;;8408185;28;20011;-74
2024/03/23 15:38:49;;;;;;;;;;;12.60;99.90;;;;;;8389028;28;20129;-74
2024/03/23 15:42:49;;;;;;;;;;;12.10;99.90;;;;;;8397973;28;19965;-74
2024/03/23 15:46:50;;;;;;;;;;;12.10;99.90;;;;;;8407376;28;20007;-73
2024/03/23 15:50:55;;;;;;;;;;;11.70;99.90;;;;;;8400409;28;19920;-73
2024/03/23 15:54:57;;;;;;;;;;;11.20;99.90;;;;;;8405521;28;20431;-74
2024/03/23 15:59:06;;;;;;;;;;;10.70;99.90;;;;;;8404912;28;20430;-73
2024/03/23 16:03:07;;;;;;;;;;;11.00;99.90;;;;;;8402843;28;20014;-74
2024/03/23 16:07:08;;;;;;;;;;;11.40;99.90;;;;;;8399484;28;20435;-73
2024/03/23 16:11:09;;;;;;;;;;;11.80;99.90;;;;;;8405766;28;20382;-74
2024/03/23 16:15:10;;;;;;;;;;;12.10;99.90;;;;;;8405143;28;20049;-73
2024/03/23 16:19:11;;;;;;;;;;;11.90;99.90;;;;;;8402869;28;19928;-73
2024/03/23 16:23:12;;;;;;;;;;;11.40;99.90;;;;;;8387221;28;20427;-74
2024/03/23 16:27:13;;;;;;;;;;;10.80;99.90;;;;;;8409978;28;20299;-73
2024/03/23 16:31:14;;;;;;;;;;;10.30;99.90;;;;;;8392358;28;19919;-74
2024/03/23 16:35:14;;;;;;;;;;;10.00;99.90;;;;;;8412316;28;19967;-73
2024/03/23 16:39:15;;;;;;;;;;;9.50;99.90;;;;;;8408232;28;19969;-74
2024/03/23 16:43:16;;;;;;;;;;;9.20;99.90;;;;;;8370342;28;20326;-74
2024/03/23 16:47:17;;;;;;;;;;;9.10;99.90;;;;;;8372498;28;19942;-74
2024/03/23 16:51:49;;;;;;;;;;;9.10;99.90;;;;;;8385357;28;19928;-74
2024/03/23 16:56:00;;;;;;;;;;;9.30;99.90;;;;;;8361571;28;19924;-74
2024/03/23 17:00:01;;;;;;;;;;;9.40;99.90;;;;;;8392042;28;19924;-74
2024/03/23 17:04:03;;;;;;;;;;;9.20;99.90;;;;;;8376989;28;20359;-74
2024/03/23 17:08:04;;;;;;;;;;;9.10;99.90;;;;;;8375411;28;20291;-74
2024/03/23 17:12:05;;;;;;;;;;;9.00;99.90;;;;;;8375652;28;19920;-74
2024/03/23 17:16:08;;;;;;;;;;;9.00;99.90;;;;;;8391950;28;20509;-74
2024/03/23 17:20:10;;;;;;;;;;;9.00;99.90;;;;;;8380640;28;20397;-74
2024/03/23 17:24:11;;;;;;;;;;;9.00;99.90;;;;;;8386060;28;20439;-74
2024/03/23 17:28:12;;;;;;;;;;;9.00;99.90;;;;;;8376091;28;19920;-74
2024/03/23 17:32:14;;;;;;;;;;;9.00;99.90;;;;;;8378515;28;19920;-74
2024/03/23 17:36:15;;;;;;;;;;;9.10;99.90;;;;;;8367717;28;19924;-74
2024/03/23 17:40:16;;;;;;;;;;;9.10;99.90;;;;;;8367472;28;19981;-74
2024/03/23 17:44:17;;;;;;;;;;;9.10;99.90;;;;;;8376434;28;19920;-74
2024/03/23 17:53:21;;;;;;;;;;;8.80;99.90;;;;;;8387509;28;20405;-73
2024/03/23 17:57:22;;;;;;;;;;;8.70;99.90;;;;;;8405746;28;20440;-73
2024/03/23 18:01:23;;;;;;;;;;;8.60;99.90;;;;;;8365998;28;19931;-74
2024/03/23 18:05:23;;;;;;;;;;;8.60;99.90;;;;;;8390899;28;19927;-73
2024/03/23 18:09:24;;;;;;;;;;;8.40;99.90;;;;;;8379691;28;19928;-73
2024/03/23 18:13:25;;;;;;;;;;;8.20;99.90;;;;;;8386304;28;20283;-73
2024/03/23 18:17:26;;;;;;;;;;;8.00;99.90;;;;;;8389597;28;19924;-74
2024/03/23 18:21:27;;;;;;;;;;;8.00;99.90;;;;;;8375659;28;19932;-73
2024/03/23 18:25:28;;;;;;;;;;;7.90;99.90;;;;;;8382724;28;19982;-74
2024/03/23 18:29:29;;;;;;;;;;;7.70;99.90;;;;;;8371784;28;19924;-74
2024/03/23 18:33:32;;;;;;;;;;;7.70;99.90;;;;;;8374455;28;19970;-74
2024/03/23 18:37:33;;;;;;;;;;;7.60;99.90;;;;;;8377460;28;20376;-74
2024/03/23 18:41:34;;;;;;;;;;;7.50;99.90;;;;;;8379075;28;19920;-73
2024/03/23 18:45:36;;;;;;;;;;;7.50;99.90;;;;;;8361540;28;19924;-74
2024/03/23 18:49:37;;;;;;;;;;;7.50;99.90;;;;;;8356797;28;19920;-73
2024/03/23 18:53:38;;;;;;;;;;;7.50;99.90;;;;;;8359732;28;19931;-74
2024/03/23 18:57:39;;;;;;;;;;;7.50;99.90;;;;;;8370641;28;19931;-73
2024/03/23 19:01:40;;;;;;;;;;;7.50;99.90;;;;;;8356883;28;19927;-73
2024/03/23 19:05:41;;;;;;;;;;;7.40;99.90;;;;;;8362877;28;19920;-74
2024/03/23 19:09:41;;;;;;;;;;;7.40;99.90;;;;;;8396354;28;19920;-73
2024/03/23 19:13:42;;;;;;;;;;;7.20;99.90;;;;;;8361442;28;19920;-73
2024/03/23 19:17:43;;;;;;;;;;;7.20;99.90;;;;;;8361170;28;20379;-73
2024/03/23 19:21:43;;;;;;;;;;;7.10;99.90;;;;;;8374953;28;19924;-74
2024/03/23 19:25:51;;;;;;;;;;;7.10;99.90;;;;;;8361250;28;19924;-73
2024/03/23 19:29:52;;;;;;;;;;;7.00;99.90;;;;;;8382509;28;19927;-73
2024/03/23 19:33:52;;;;;;;;;;;7.00;99.90;;;;;;8380968;28;19924;-73
2024/03/23 19:38:03;;;;;;;;;;;6.90;99.90;;;;;;8382601;28;19924;-73
2024/03/23 19:42:04;;;;;;;;;;;6.80;99.90;;;;;;8369763;28;19925;-74
2024/03/23 19:46:04;;;;;;;;;;;6.80;99.90;;;;;;8373189;28;20046;-73
2024/03/23 19:50:08;;;;;;;;;;;6.70;99.90;;;;;;8385601;28;20279;-73
2024/03/23 19:54:08;;;;;;;;;;;6.70;99.90;;;;;;8352926;28;20392;-73
2024/03/23 19:58:09;;;;;;;;;;;6.60;99.90;;;;;;8369907;28;19997;-73
2024/03/23 20:02:10;;;;;;;;;;;6.60;99.90;;;;;;8387546;28;19925;-73
2024/03/23 20:06:11;;;;;;;;;;;6.50;99.90;;;;;;8374961;28;19921;-73
2024/03/23 20:10:12;;;;;;;;;;;6.50;99.90;;;;;;8377743;28;20402;-73
2024/03/23 20:14:13;;;;;;;;;;;6.40;99.90;;;;;;8378126;28;20337;-73
2024/03/23 20:18:14;;;;;;;;;;;6.40;99.90;;;;;;8379676;28;19942;-73
2024/03/23 20:22:14;;;;;;;;;;;6.30;99.90;;;;;;8373422;28;19985;-73
2024/03/23 20:26:15;;;;;;;;;;;6.30;99.90;;;;;;8386936;28;19951;-73
2024/03/23 20:30:16;;;;;;;;;;;6.30;99.90;;;;;;8392587;28;19926;-73
2024/03/23 20:34:18;;;;;;;;;;;6.30;99.90;;;;;;8378360;28;20026;-73
2024/03/23 20:38:22;;;;;;;;;;;6.20;99.90;;;;;;8375464;28;19928;-73
2024/03/23 20:42:23;;;;;;;;;;;6.10;99.90;;;;;;8380626;28;19920;-73
2024/03/23 20:46:24;;;;;;;;;;;6.10;99.90;;;;;;8378885;28;19920;-73
2024/03/23 20:50:25;;;;;;;;;;;6.00;99.90;;;;;;8378611;28;20126;-73
2024/03/23 20:54:25;;;;;;;;;;;6.00;99.90;;;;;;8389994;28;19931;-73
2024/03/23 20:58:27;;;;;;;;;;;6.00;99.90;;;;;;8390125;28;19928;-73
2024/03/23 21:02:28;;;;;;;;;;;6.00;99.90;;;;;;8374271;28;19920;-73
2024/03/23 21:06:29;;;;;;;;;;;5.90;99.90;;;;;;8380587;28;19928;-74
2024/03/23 21:10:30;;;;;;;;;;;5.90;99.90;;;;;;8377367;28;19953;-73
2024/03/23 21:14:31;;;;;;;;;;;5.80;99.90;;;;;;8375905;28;19934;-73
2024/03/23 21:18:32;;;;;;;;;;;5.80;99.90;;;;;;8387679;28;19924;-73
2024/03/23 21:22:33;;;;;;;;;;;5.80;99.90;;;;;;8379567;28;20291;-73
2024/03/23 21:26:34;;;;;;;;;;;5.70;99.90;;;;;;8392716;28;20148;-73
2024/03/23 21:30:35;;;;;;;;;;;5.70;99.90;;;;;;8381442;28;19970;-73
2024/03/23 21:34:36;;;;;;;;;;;5.70;99.90;;;;;;8373923;28;20347;-73
2024/03/23 21:38:37;;;;;;;;;;;5.70;99.90;;;;;;8374556;28;20282;-73
2024/03/23 21:42:38;;;;;;;;;;;5.70;99.90;;;;;;8372868;28;19928;-73
2024/03/23 21:46:38;;;;;;;;;;;5.60;99.90;;;;;;8362923;28;19928;-73
2024/03/23 21:50:39;;;;;;;;;;;5.60;99.90;;;;;;8372687;28;19927;-73
2024/03/23 21:54:40;;;;;;;;;;;5.60;99.90;;;;;;8378865;28;20416;-73
2024/03/23 21:58:40;;;;;;;;;;;5.50;99.90;;;;;;8365601;28;20036;-74
2024/03/23 22:02:41;;;;;;;;;;;5.50;99.90;;;;;;8391683;28;19975;-73
2024/03/23 22:06:43;;;;;;;;;;;5.40;99.90;;;;;;8358084;28;19972;-73
2024/03/23 22:10:45;;;;;;;;;;;5.40;99.90;;;;;;8380086;28;19919;-74
2024/03/23 22:14:46;;;;;;;;;;;5.40;99.90;;;;;;8361337;28;19924;-73
2024/03/23 22:18:47;;;;;;;;;;;5.40;99.90;;;;;;8388714;28;19972;-73
2024/03/23 22:22:48;;;;;;;;;;;5.50;99.90;;;;;;8372571;28;20007;-73
2024/03/23 22:26:49;;;;;;;;;;;5.50;99.90;;;;;;8376033;28;19931;-73
2024/03/23 22:31:03;;;;;;;;;;;5.50;99.90;;;;;;8388482;28;20007;-73
2024/03/23 22:35:04;;;;;;;;;;;5.50;99.90;;;;;;8357051;28;21348;-72
2024/03/23 22:39:05;;;;;;;;;;;5.60;99.90;;;;;;8375781;28;19926;-73
2024/03/23 22:43:06;;;;;;;;;;;5.60;99.90;;;;;;8378649;28;20019;-73
2024/03/23 22:47:07;;;;;;;;;;;5.50;99.90;;;;;;8371290;28;19998;-73
2024/03/23 22:51:08;;;;;;;;;;;5.50;99.90;;;;;;8367118;28;19927;-73
2024/03/23 22:55:09;;;;;;;;;;;5.50;99.90;;;;;;8372849;28;19957;-73
2024/03/23 22:59:09;;;;;;;;;;;5.40;99.90;;;;;;8373742;28;19920;-73
2024/03/23 23:03:11;;;;;;;;;;;5.40;99.90;;;;;;8356087;28;20011;-73
2024/03/23 23:07:12;;;;;;;;;;;5.40;99.90;;;;;;8397219;28;19927;-73
2024/03/23 23:11:13;;;;;;;;;;;5.40;99.90;;;;;;8386534;28;19924;-73
2024/03/23 23:15:14;;;;;;;;;;;5.40;99.90;;;;;;8373304;28;19967;-73
2024/03/23 23:19:15;;;;;;;;;;;5.50;99.90;;;;;;8384854;28;20019;-73
2024/03/23 23:23:16;;;;;;;;;;;5.40;99.90;;;;;;8393047;28;20009;-73
2024/03/23 23:27:16;;;;;;;;;;;5.50;99.90;;;;;;8386222;28;19958;-73
2024/03/23 23:31:17;;;;;;;;;;;5.50;99.90;;;;;;8372349;28;19920;-73
2024/03/23 23:35:18;;;;;;;;;;;5.50;99.90;;;;;;8385853;28;19932;-73
2024/03/23 23:39:19;;;;;;;;;;;5.50;99.90;;;;;;8352429;28;20081;-73